sensor_id;sensor_type;location;lat;lon;timestamp;temperature;humidity
22442;DHT22;11388;54.456;9.752;2023-08-21T00:05:03;18.30;99.90
22442;DHT22;11388;54.456;9.752;2023-08-21T00:07:42;18.30;99.90
22442;DHT22;11388;54.456;9.752;2023-08-21T00:10:11;18.30;99.90
22442;DHT22;11388;54.456;9.752;2023-08-21T00:12:42;18.30;99.90
22442;DHT22;11388;54.456;9.752;2023-08-21T00:18:02;18.40;99.90
22442;DHT22;11388;54.456;9.752;2023-08-21T00:27:02;18.50;99.90
22442;DHT22;11388;54.456;9.752;2023-08-21T00:29:29;18.50;99.90
22442;DHT22;11388;54.456;9.752;2023-08-21T00:35:18;18.50;99.90
22442;DHT22;11388;54.456;9.752;2023-08-21T00:37:52;18.50;99.90
22442;DHT22;11388;54.456;9.752;2023-08-21T00:40:18;18.60;99.90
22442;DHT22;11388;54.456;9.752;2023-08-21T00:53:11;18.70;99.90
22442;DHT22;11388;54.456;9.752;2023-08-21T00:55:49;18.70;99.90
22442;DHT22;11388;54.456;9.752;2023-08-21T00:58:27;18.80;99.90
22442;DHT22;11388;54.456;9.752;2023-08-21T01:17:12;18.80;99.90
22442;DHT22;11388;54.456;9.752;2023-08-21T01:19:44;18.80;99.90
22442;DHT22;11388;54.456;9.752;2023-08-21T01:22:39;18.90;99.90
22442;DHT22;11388;54.456;9.752;2023-08-21T01:25:08;18.90;99.90
22442;DHT22;11388;54.456;9.752;2023-08-21T01:27:37;18.70;99.90
22442;DHT22;11388;54.456;9.752;2023-08-21T01:30:12;18.80;99.90
22442;DHT22;11388;54.456;9.752;2023-08-21T01:33:06;18.70;99.90
22442;DHT22;11388;54.456;9.752;2023-08-21T01:35:54;18.80;99.90
22442;DHT22;11388;54.456;9.752;2023-08-21T01:38:23;18.50;99.90
22442;DHT22;11388;54.456;9.752;2023-08-21T01:40:53;18.50;99.90
22442;DHT22;11388;54.456;9.752;2023-08-21T01:43:21;18.60;99.90
22442;DHT22;11388;54.456;9.752;2023-08-21T01:45:47;18.60;99.90
22442;DHT22;11388;54.456;9.752;2023-08-21T01:48:19;18.70;99.90
22442;DHT22;11388;54.456;9.752;2023-08-21T01:54:17;18.70;99.90
22442;DHT22;11388;54.456;9.752;2023-08-21T01:56:45;18.70;99.90
22442;DHT22;11388;54.456;9.752;2023-08-21T02:02:58;18.60;99.90
22442;DHT22;11388;54.456;9.752;2023-08-21T02:05:23;18.60;99.90
22442;DHT22;11388;54.456;9.752;2023-08-21T02:10:53;18.60;99.90
22442;DHT22;11388;54.456;9.752;2023-08-21T02:13:24;18.50;99.90
22442;DHT22;11388;54.456;9.752;2023-08-21T02:15:58;18.50;99.90
22442;DHT22;11388;54.456;9.752;2023-08-21T02:18:34;18.60;99.90
22442;DHT22;11388;54.456;9.752;2023-08-21T02:21:34;18.60;99.90
22442;DHT22;11388;54.456;9.752;2023-08-21T02:24:07;18.70;99.90
22442;DHT22;11388;54.456;9.752;2023-08-21T02:26:40;18.60;99.90
22442;DHT22;11388;54.456;9.752;2023-08-21T02:29:13;18.40;99.90
22442;DHT22;11388;54.456;9.752;2023-08-21T02:31:51;18.40;99.90
22442;DHT22;11388;54.456;9.752;2023-08-21T02:34:19;18.30;99.90
22442;DHT22;11388;54.456;9.752;2023-08-21T02:37:32;18.30;99.90
22442;DHT22;11388;54.456;9.752;2023-08-21T02:43:00;18.60;99.90
22442;DHT22;11388;54.456;9.752;2023-08-21T02:45:41;18.60;99.90
22442;DHT22;11388;54.456;9.752;2023-08-21T02:49:20;18.60;99.90
22442;DHT22;11388;54.456;9.752;2023-08-21T02:52:06;18.70;99.90
22442;DHT22;11388;54.456;9.752;2023-08-21T02:54:34;18.70;99.90
22442;DHT22;11388;54.456;9.752;2023-08-21T02:57:00;18.70;99.90
22442;DHT22;11388;54.456;9.752;2023-08-21T02:59:28;18.70;99.90
22442;DHT22;11388;54.456;9.752;2023-08-21T03:02:10;18.70;99.90
22442;DHT22;11388;54.456;9.752;2023-08-21T03:04:51;18.60;99.90
22442;DHT22;11388;54.456;9.752;2023-08-21T03:07:37;18.60;99.90
22442;DHT22;11388;54.456;9.752;2023-08-21T03:10:03;18.70;99.90
22442;DHT22;11388;54.456;9.752;2023-08-21T03:12:29;18.60;99.90
22442;DHT22;11388;54.456;9.752;2023-08-21T03:15:12;18.60;99.90
22442;DHT22;11388;54.456;9.752;2023-08-21T03:21:19;18.60;99.90
22442;DHT22;11388;54.456;9.752;2023-08-21T03:23:58;18.50;99.90
22442;DHT22;11388;54.456;9.752;2023-08-21T03:27:16;18.40;99.90
22442;DHT22;11388;54.456;9.752;2023-08-21T03:33:29;18.40;99.90
22442;DHT22;11388;54.456;9.752;2023-08-21T03:35:54;18.30;99.90
22442;DHT22;11388;54.456;9.752;2023-08-21T03:38:23;18.40;99.90
22442;DHT22;11388;54.456;9.752;2023-08-21T03:40:49;18.30;99.90
22442;DHT22;11388;54.456;9.752;2023-08-21T03:43:15;18.30;99.90
22442;DHT22;11388;54.456;9.752;2023-08-21T03:45:43;18.20;99.90
22442;DHT22;11388;54.456;9.752;2023-08-21T03:48:12;18.20;99.90
22442;DHT22;11388;54.456;9.752;2023-08-21T03:50:49;18.10;99.90
22442;DHT22;11388;54.456;9.752;2023-08-21T03:53:45;18.10;99.90
22442;DHT22;11388;54.456;9.752;2023-08-21T03:56:18;18.20;99.90
22442;DHT22;11388;54.456;9.752;2023-08-21T03:58:44;18.10;99.90
22442;DHT22;11388;54.456;9.752;2023-08-21T04:01:27;18.10;99.90
22442;DHT22;11388;54.456;9.752;2023-08-21T04:07:07;18.10;99.90
22442;DHT22;11388;54.456;9.752;2023-08-21T04:12:57;18.10;99.90
22442;DHT22;11388;54.456;9.752;2023-08-21T04:15:26;18.20;99.90
22442;DHT22;11388;54.456;9.752;2023-08-21T04:21:07;18.20;99.90
22442;DHT22;11388;54.456;9.752;2023-08-21T04:23:35;18.10;99.90
22442;DHT22;11388;54.456;9.752;2023-08-21T04:26:10;18.20;99.90
22442;DHT22;11388;54.456;9.752;2023-08-21T04:29:27;18.20;99.90
22442;DHT22;11388;54.456;9.752;2023-08-21T04:32:16;18.30;99.90
22442;DHT22;11388;54.456;9.752;2023-08-21T04:35:03;18.20;99.90
22442;DHT22;11388;54.456;9.752;2023-08-21T04:37:45;18.20;99.90
22442;DHT22;11388;54.456;9.752;2023-08-21T04:40:21;18.20;99.90
22442;DHT22;11388;54.456;9.752;2023-08-21T04:43:07;18.20;99.90
22442;DHT22;11388;54.456;9.752;2023-08-21T04:45:36;18.00;99.90
22442;DHT22;11388;54.456;9.752;2023-08-21T04:48:04;17.90;99.90
22442;DHT22;11388;54.456;9.752;2023-08-21T04:50:30;17.80;99.90
22442;DHT22;11388;54.456;9.752;2023-08-21T04:52:56;17.90;99.90
22442;DHT22;11388;54.456;9.752;2023-08-21T04:55:21;17.80;99.90
22442;DHT22;11388;54.456;9.752;2023-08-21T04:57:49;17.80;99.90
22442;DHT22;11388;54.456;9.752;2023-08-21T05:00:18;17.80;99.90
22442;DHT22;11388;54.456;9.752;2023-08-21T05:02:46;17.90;99.90
22442;DHT22;11388;54.456;9.752;2023-08-21T05:05:17;17.90;99.90
22442;DHT22;11388;54.456;9.752;2023-08-21T05:07:53;18.00;99.90
22442;DHT22;11388;54.456;9.752;2023-08-21T05:10:24;18.10;99.90
22442;DHT22;11388;54.456;9.752;2023-08-21T05:12:50;18.20;99.90
22442;DHT22;11388;54.456;9.752;2023-08-21T05:15:16;18.20;99.90
22442;DHT22;11388;54.456;9.752;2023-08-21T05:17:50;18.20;99.90
22442;DHT22;11388;54.456;9.752;2023-08-21T05:20:18;18.30;99.90
22442;DHT22;11388;54.456;9.752;2023-08-21T05:22:57;18.30;99.90
22442;DHT22;11388;54.456;9.752;2023-08-21T05:25:22;18.30;99.90
22442;DHT22;11388;54.456;9.752;2023-08-21T05:28:07;18.40;99.90
22442;DHT22;11388;54.456;9.752;2023-08-21T05:30:35;18.40;99.90
22442;DHT22;11388;54.456;9.752;2023-08-21T05:36:31;18.40;99.90
22442;DHT22;11388;54.456;9.752;2023-08-21T05:38:57;18.30;99.90
22442;DHT22;11388;54.456;9.752;2023-08-21T05:41:23;18.40;99.90
22442;DHT22;11388;54.456;9.752;2023-08-21T05:46:36;18.40;99.90
22442;DHT22;11388;54.456;9.752;2023-08-21T05:49:04;18.50;99.90
22442;DHT22;11388;54.456;9.752;2023-08-21T05:51:34;18.60;99.90
22442;DHT22;11388;54.456;9.752;2023-08-21T05:54:07;18.60;99.90
22442;DHT22;11388;54.456;9.752;2023-08-21T05:56:32;18.60;99.90
22442;DHT22;11388;54.456;9.752;2023-08-21T05:59:01;18.50;99.90
22442;DHT22;11388;54.456;9.752;2023-08-21T06:01:29;18.50;99.90
22442;DHT22;11388;54.456;9.752;2023-08-21T06:07:17;18.50;99.90
22442;DHT22;11388;54.456;9.752;2023-08-21T06:09:55;18.50;99.90
22442;DHT22;11388;54.456;9.752;2023-08-21T06:12:23;18.70;99.90
22442;DHT22;11388;54.456;9.752;2023-08-21T06:14:49;18.80;99.90
22442;DHT22;11388;54.456;9.752;2023-08-21T06:17:20;19.00;99.90
22442;DHT22;11388;54.456;9.752;2023-08-21T06:38:33;18.80;99.90
22442;DHT22;11388;54.456;9.752;2023-08-21T06:41:01;18.70;99.90
22442;DHT22;11388;54.456;9.752;2023-08-21T07:06:03;18.90;99.90
22442;DHT22;11388;54.456;9.752;2023-08-21T07:08:29;18.90;99.90
22442;DHT22;11388;54.456;9.752;2023-08-21T07:14:33;19.00;99.90
22442;DHT22;11388;54.456;9.752;2023-08-21T07:20:31;19.30;99.90
22442;DHT22;11388;54.456;9.752;2023-08-21T07:22:58;19.40;99.90
22442;DHT22;11388;54.456;9.752;2023-08-21T07:26:03;19.50;99.90
22442;DHT22;11388;54.456;9.752;2023-08-21T07:28:40;19.50;99.90
22442;DHT22;11388;54.456;9.752;2023-08-21T07:31:17;19.40;99.90
22442;DHT22;11388;54.456;9.752;2023-08-21T07:33:55;19.50;99.90
22442;DHT22;11388;54.456;9.752;2023-08-21T07:36:25;19.60;99.90
22442;DHT22;11388;54.456;9.752;2023-08-21T07:38:54;19.50;99.90
22442;DHT22;11388;54.456;9.752;2023-08-21T07:41:28;19.70;99.90
22442;DHT22;11388;54.456;9.752;2023-08-21T07:46:52;19.70;99.90
22442;DHT22;11388;54.456;9.752;2023-08-21T07:49:32;19.70;99.90
22442;DHT22;11388;54.456;9.752;2023-08-21T07:52:24;19.80;99.90
22442;DHT22;11388;54.456;9.752;2023-08-21T07:54:55;20.00;99.90
22442;DHT22;11388;54.456;9.752;2023-08-21T07:57:35;20.30;99.90
22442;DHT22;11388;54.456;9.752;2023-08-21T08:00:30;20.50;99.90
22442;DHT22;11388;54.456;9.752;2023-08-21T08:02:58;20.60;99.90
22442;DHT22;11388;54.456;9.752;2023-08-21T08:05:30;20.50;99.90
22442;DHT22;11388;54.456;9.752;2023-08-21T08:08:24;20.50;99.90
22442;DHT22;11388;54.456;9.752;2023-08-21T08:17:05;20.90;99.90
22442;DHT22;11388;54.456;9.752;2023-08-21T08:22:51;20.50;99.90
22442;DHT22;11388;54.456;9.752;2023-08-21T08:25:31;20.40;99.90
22442;DHT22;11388;54.456;9.752;2023-08-21T08:28:33;20.40;99.90
22442;DHT22;11388;54.456;9.752;2023-08-21T08:31:17;20.50;99.90
22442;DHT22;11388;54.456;9.752;2023-08-21T08:37:28;21.00;99.90
22442;DHT22;11388;54.456;9.752;2023-08-21T08:40:15;21.20;99.90
22442;DHT22;11388;54.456;9.752;2023-08-21T08:53:22;21.70;99.90
22442;DHT22;11388;54.456;9.752;2023-08-21T09:06:15;21.70;99.90
22442;DHT22;11388;54.456;9.752;2023-08-21T09:19:01;21.00;99.90
22442;DHT22;11388;54.456;9.752;2023-08-21T13:59:27;41.50;60.50
22442;DHT22;11388;54.456;9.752;2023-08-21T17:16:32;28.60;87.00
22442;DHT22;11388;54.456;9.752;2023-08-21T17:18:57;27.70;85.50
22442;DHT22;11388;54.456;9.752;2023-08-21T17:21:23;27.50;88.80
22442;DHT22;11388;54.456;9.752;2023-08-21T17:23:49;27.30;90.00
22442;DHT22;11388;54.456;9.752;2023-08-21T17:26:15;27.10;90.40
22442;DHT22;11388;54.456;9.752;2023-08-21T17:28:46;27.00;91.20
22442;DHT22;11388;54.456;9.752;2023-08-21T17:31:13;26.90;91.80
22442;DHT22;11388;54.456;9.752;2023-08-21T17:33:52;26.90;92.30
22442;DHT22;11388;54.456;9.752;2023-08-21T17:36:18;26.70;92.10
22442;DHT22;11388;54.456;9.752;2023-08-21T17:38:53;26.40;91.90
22442;DHT22;11388;54.456;9.752;2023-08-21T17:41:19;26.20;93.00
22442;DHT22;11388;54.456;9.752;2023-08-21T17:43:47;26.10;93.80
22442;DHT22;11388;54.456;9.752;2023-08-21T17:46:13;26.00;94.20
22442;DHT22;11388;54.456;9.752;2023-08-21T17:48:42;25.70;93.60
22442;DHT22;11388;54.456;9.752;2023-08-21T17:51:09;25.60;95.10
22442;DHT22;11388;54.456;9.752;2023-08-21T17:53:45;25.40;95.70
22442;DHT22;11388;54.456;9.752;2023-08-21T17:56:11;25.30;96.70
22442;DHT22;11388;54.456;9.752;2023-08-21T17:58:37;25.10;96.90
22442;DHT22;11388;54.456;9.752;2023-08-21T18:01:03;25.00;97.40
22442;DHT22;11388;54.456;9.752;2023-08-21T18:03:29;24.80;98.20
22442;DHT22;11388;54.456;9.752;2023-08-21T18:05:55;24.70;98.30
22442;DHT22;11388;54.456;9.752;2023-08-21T18:08:21;24.60;98.00
22442;DHT22;11388;54.456;9.752;2023-08-21T18:10:47;24.50;98.50
22442;DHT22;11388;54.456;9.752;2023-08-21T18:13:18;24.30;98.60
22442;DHT22;11388;54.456;9.752;2023-08-21T18:15:50;24.20;98.80
22442;DHT22;11388;54.456;9.752;2023-08-21T18:18:23;24.10;98.90
22442;DHT22;11388;54.456;9.752;2023-08-21T18:20:50;24.00;99.80
22442;DHT22;11388;54.456;9.752;2023-08-21T18:23:20;23.80;99.90
22442;DHT22;11388;54.456;9.752;2023-08-21T18:25:47;23.70;99.90
22442;DHT22;11388;54.456;9.752;2023-08-21T18:28:13;23.60;99.90
22442;DHT22;11388;54.456;9.752;2023-08-21T18:30:42;23.50;99.90
22442;DHT22;11388;54.456;9.752;2023-08-21T18:33:09;23.40;99.90
22442;DHT22;11388;54.456;9.752;2023-08-21T18:35:38;23.40;99.90
22442;DHT22;11388;54.456;9.752;2023-08-21T18:38:04;23.20;99.90
22442;DHT22;11388;54.456;9.752;2023-08-21T18:40:32;23.20;99.90
22442;DHT22;11388;54.456;9.752;2023-08-21T18:42:58;23.10;99.90
22442;DHT22;11388;54.456;9.752;2023-08-21T18:45:24;22.90;99.90
22442;DHT22;11388;54.456;9.752;2023-08-21T18:47:49;22.80;99.90
22442;DHT22;11388;54.456;9.752;2023-08-21T18:50:18;22.70;99.90
22442;DHT22;11388;54.456;9.752;2023-08-21T18:52:46;22.60;99.90
22442;DHT22;11388;54.456;9.752;2023-08-21T18:55:12;22.50;99.90
22442;DHT22;11388;54.456;9.752;2023-08-21T18:57:38;22.40;99.90
22442;DHT22;11388;54.456;9.752;2023-08-21T19:00:04;22.20;99.90
22442;DHT22;11388;54.456;9.752;2023-08-21T19:02:38;22.20;99.90
22442;DHT22;11388;54.456;9.752;2023-08-21T19:05:05;22.20;99.90
22442;DHT22;11388;54.456;9.752;2023-08-21T19:07:40;22.10;99.90
22442;DHT22;11388;54.456;9.752;2023-08-21T19:10:07;22.00;99.90
22442;DHT22;11388;54.456;9.752;2023-08-21T19:12:34;21.90;99.90
22442;DHT22;11388;54.456;9.752;2023-08-21T19:15:03;21.80;99.90
22442;DHT22;11388;54.456;9.752;2023-08-21T19:17:29;21.80;99.90
22442;DHT22;11388;54.456;9.752;2023-08-21T19:20:22;21.70;99.90
22442;DHT22;11388;54.456;9.752;2023-08-21T19:22:49;21.60;99.90
22442;DHT22;11388;54.456;9.752;2023-08-21T19:25:15;21.60;99.90
22442;DHT22;11388;54.456;9.752;2023-08-21T19:27:40;21.50;99.90
22442;DHT22;11388;54.456;9.752;2023-08-21T19:30:07;21.50;99.90
22442;DHT22;11388;54.456;9.752;2023-08-21T19:32:33;21.30;99.90
22442;DHT22;11388;54.456;9.752;2023-08-21T19:35:07;21.20;99.90
22442;DHT22;11388;54.456;9.752;2023-08-21T19:37:33;21.10;99.90
22442;DHT22;11388;54.456;9.752;2023-08-21T19:39:58;21.00;99.90
22442;DHT22;11388;54.456;9.752;2023-08-21T19:42:25;20.90;99.90
22442;DHT22;11388;54.456;9.752;2023-08-21T19:44:51;20.90;99.90
22442;DHT22;11388;54.456;9.752;2023-08-21T19:47:16;20.80;99.90
22442;DHT22;11388;54.456;9.752;2023-08-21T19:49:42;20.70;99.90
22442;DHT22;11388;54.456;9.752;2023-08-21T19:52:08;20.80;99.90
22442;DHT22;11388;54.456;9.752;2023-08-21T19:54:34;20.80;99.90
22442;DHT22;11388;54.456;9.752;2023-08-21T19:57:00;20.70;99.90
22442;DHT22;11388;54.456;9.752;2023-08-21T19:59:26;20.60;99.90
22442;DHT22;11388;54.456;9.752;2023-08-21T20:01:52;20.50;99.90
22442;DHT22;11388;54.456;9.752;2023-08-21T20:04:19;20.60;99.90
22442;DHT22;11388;54.456;9.752;2023-08-21T20:06:45;20.40;99.90
22442;DHT22;11388;54.456;9.752;2023-08-21T20:09:10;20.40;99.90
22442;DHT22;11388;54.456;9.752;2023-08-21T20:11:36;20.40;99.90
22442;DHT22;11388;54.456;9.752;2023-08-21T20:14:02;20.20;99.90
22442;DHT22;11388;54.456;9.752;2023-08-21T20:16:29;20.10;99.90
22442;DHT22;11388;54.456;9.752;2023-08-21T20:18:55;20.10;99.90
22442;DHT22;11388;54.456;9.752;2023-08-21T20:21:24;20.00;99.90
22442;DHT22;11388;54.456;9.752;2023-08-21T20:23:49;20.00;99.90
22442;DHT22;11388;54.456;9.752;2023-08-21T20:26:18;19.90;99.90
22442;DHT22;11388;54.456;9.752;2023-08-21T20:28:45;19.80;99.90
22442;DHT22;11388;54.456;9.752;2023-08-21T20:31:10;19.80;99.90
22442;DHT22;11388;54.456;9.752;2023-08-21T20:33:37;19.70;99.90
22442;DHT22;11388;54.456;9.752;2023-08-21T20:36:03;19.70;99.90
22442;DHT22;11388;54.456;9.752;2023-08-21T20:38:30;19.60;99.90
22442;DHT22;11388;54.456;9.752;2023-08-21T20:41:01;19.60;99.90
22442;DHT22;11388;54.456;9.752;2023-08-21T20:43:27;19.60;99.90
22442;DHT22;11388;54.456;9.752;2023-08-21T20:45:53;19.60;99.90
22442;DHT22;11388;54.456;9.752;2023-08-21T20:48:19;19.50;99.90
22442;DHT22;11388;54.456;9.752;2023-08-21T20:50:44;19.40;99.90
22442;DHT22;11388;54.456;9.752;2023-08-21T20:53:10;19.50;99.90
22442;DHT22;11388;54.456;9.752;2023-08-21T20:55:36;19.40;99.90
22442;DHT22;11388;54.456;9.752;2023-08-21T20:58:02;19.40;99.90
22442;DHT22;11388;54.456;9.752;2023-08-21T21:00:28;19.40;99.90
22442;DHT22;11388;54.456;9.752;2023-08-21T21:02:54;19.40;99.90
22442;DHT22;11388;54.456;9.752;2023-08-21T21:05:20;19.40;99.90
22442;DHT22;11388;54.456;9.752;2023-08-21T21:07:45;19.40;99.90
22442;DHT22;11388;54.456;9.752;2023-08-21T21:10:11;19.30;99.90
22442;DHT22;11388;54.456;9.752;2023-08-21T21:12:37;19.30;99.90
22442;DHT22;11388;54.456;9.752;2023-08-21T21:15:03;19.40;99.90
22442;DHT22;11388;54.456;9.752;2023-08-21T21:17:29;19.30;99.90
22442;DHT22;11388;54.456;9.752;2023-08-21T21:19:55;19.30;99.90
22442;DHT22;11388;54.456;9.752;2023-08-21T21:22:21;19.30;99.90
22442;DHT22;11388;54.456;9.752;2023-08-21T21:24:46;19.20;99.90
22442;DHT22;11388;54.456;9.752;2023-08-21T21:27:12;19.20;99.90
22442;DHT22;11388;54.456;9.752;2023-08-21T21:29:38;19.20;99.90
22442;DHT22;11388;54.456;9.752;2023-08-21T21:32:04;19.20;99.90
22442;DHT22;11388;54.456;9.752;2023-08-21T21:34:31;19.10;99.90
22442;DHT22;11388;54.456;9.752;2023-08-21T21:36:57;19.00;99.90
22442;DHT22;11388;54.456;9.752;2023-08-21T21:39:22;19.00;99.90
22442;DHT22;11388;54.456;9.752;2023-08-21T21:41:48;18.90;99.90
22442;DHT22;11388;54.456;9.752;2023-08-21T21:44:14;18.90;99.90
22442;DHT22;11388;54.456;9.752;2023-08-21T21:46:40;18.90;99.90
22442;DHT22;11388;54.456;9.752;2023-08-21T21:49:05;18.90;99.90
22442;DHT22;11388;54.456;9.752;2023-08-21T21:51:31;18.90;99.90
22442;DHT22;11388;54.456;9.752;2023-08-21T21:53:57;18.80;99.90
22442;DHT22;11388;54.456;9.752;2023-08-21T21:56:22;18.80;99.90
22442;DHT22;11388;54.456;9.752;2023-08-21T21:58:48;18.80;99.90
22442;DHT22;11388;54.456;9.752;2023-08-21T22:01:16;18.80;99.90
22442;DHT22;11388;54.456;9.752;2023-08-21T22:03:42;18.80;99.90
22442;DHT22;11388;54.456;9.752;2023-08-21T22:06:08;18.80;99.90
22442;DHT22;11388;54.456;9.752;2023-08-21T22:08:34;18.80;99.90
22442;DHT22;11388;54.456;9.752;2023-08-21T22:11:04;18.80;99.90
22442;DHT22;11388;54.456;9.752;2023-08-21T22:13:30;18.80;99.90
22442;DHT22;11388;54.456;9.752;2023-08-21T22:15:56;18.80;99.90
22442;DHT22;11388;54.456;9.752;2023-08-21T22:18:23;18.70;99.90
22442;DHT22;11388;54.456;9.752;2023-08-21T22:20:48;18.70;99.90
22442;DHT22;11388;54.456;9.752;2023-08-21T22:23:14;18.70;99.90
22442;DHT22;11388;54.456;9.752;2023-08-21T22:25:40;18.70;99.90
22442;DHT22;11388;54.456;9.752;2023-08-21T22:28:05;18.70;99.90
22442;DHT22;11388;54.456;9.752;2023-08-21T22:30:31;18.70;99.90
22442;DHT22;11388;54.456;9.752;2023-08-21T22:32:57;18.70;99.90
22442;DHT22;11388;54.456;9.752;2023-08-21T22:35:23;18.70;99.90
22442;DHT22;11388;54.456;9.752;2023-08-21T22:37:49;18.60;99.90
22442;DHT22;11388;54.456;9.752;2023-08-21T22:40:15;18.60;99.90
22442;DHT22;11388;54.456;9.752;2023-08-21T22:42:40;18.50;99.90
22442;DHT22;11388;54.456;9.752;2023-08-21T22:45:07;18.50;99.90
22442;DHT22;11388;54.456;9.752;2023-08-21T22:47:32;18.50;99.90
22442;DHT22;11388;54.456;9.752;2023-08-21T22:49:58;18.50;99.90
22442;DHT22;11388;54.456;9.752;2023-08-21T22:52:27;18.50;99.90
22442;DHT22;11388;54.456;9.752;2023-08-21T22:54:54;18.50;99.90
22442;DHT22;11388;54.456;9.752;2023-08-21T22:57:20;18.50;99.90
22442;DHT22;11388;54.456;9.752;2023-08-21T22:59:46;18.50;99.90
22442;DHT22;11388;54.456;9.752;2023-08-21T23:02:12;18.60;99.90
22442;DHT22;11388;54.456;9.752;2023-08-21T23:04:37;18.50;99.90
22442;DHT22;11388;54.456;9.752;2023-08-21T23:07:03;18.40;99.90
22442;DHT22;11388;54.456;9.752;2023-08-21T23:09:29;18.40;99.90
22442;DHT22;11388;54.456;9.752;2023-08-21T23:11:55;18.40;99.90
22442;DHT22;11388;54.456;9.752;2023-08-21T23:14:21;18.40;99.90
22442;DHT22;11388;54.456;9.752;2023-08-21T23:16:46;18.30;99.90
22442;DHT22;11388;54.456;9.752;2023-08-21T23:19:16;18.40;99.90
22442;DHT22;11388;54.456;9.752;2023-08-21T23:21:42;18.30;99.90
22442;DHT22;11388;54.456;9.752;2023-08-21T23:24:08;18.40;99.90
22442;DHT22;11388;54.456;9.752;2023-08-21T23:26:33;18.30;99.90
22442;DHT22;11388;54.456;9.752;2023-08-21T23:28:59;18.30;99.90
22442;DHT22;11388;54.456;9.752;2023-08-21T23:31:29;18.30;99.90
22442;DHT22;11388;54.456;9.752;2023-08-21T23:33:55;18.30;99.90
22442;DHT22;11388;54.456;9.752;2023-08-21T23:36:20;18.30;99.90
22442;DHT22;11388;54.456;9.752;2023-08-21T23:38:46;18.30;99.90
22442;DHT22;11388;54.456;9.752;2023-08-21T23:41:12;18.20;99.90
22442;DHT22;11388;54.456;9.752;2023-08-21T23:43:38;18.20;99.90
22442;DHT22;11388;54.456;9.752;2023-08-21T23:46:04;18.10;99.90
22442;DHT22;11388;54.456;9.752;2023-08-21T23:48:29;18.10;99.90
22442;DHT22;11388;54.456;9.752;2023-08-21T23:50:55;18.00;99.90
22442;DHT22;11388;54.456;9.752;2023-08-21T23:53:21;18.10;99.90
22442;DHT22;11388;54.456;9.752;2023-08-21T23:55:49;18.10;99.90
22442;DHT22;11388;54.456;9.752;2023-08-21T23:58:15;18.00;99.90
